Time;durP1;ratioP1;P1;durP2;ratioP2;P2;SDS_P1;SDS_P2;PMS_P1;PMS_P2;Temp;Humidity;BMP_temperature;BMP_pressure;BME280_temperature;BME280_humidity;BME280_pressure;Samples;Min_cycle;Max_cycle;Signal;HPM_P1;HPM_P2
2020/12/17 00:01:35;;;;;;;121.80;44.00;;;3.90;99.90;;;;;;5053181;28;20178;-89
2020/12/17 00:04:01;;;;;;;132.43;44.70;;;3.90;99.90;;;;;;5053339;28;20177;-90
2020/12/17 00:06:26;;;;;;;125.27;44.43;;;3.90;99.90;;;;;;5052065;28;20185;-89
2020/12/17 00:08:52;;;;;;;133.03;46.83;;;3.90;99.90;;;;;;5052135;28;20240;-89
2020/12/17 00:11:17;;;;;;;128.67;45.70;;;3.90;99.90;;;;;;5052703;28;20174;-89
2020/12/17 00:13:46;;;;;;;155.37;46.50;;;3.80;99.90;;;;;;5052593;28;20265;-90
2020/12/17 00:16:15;;;;;;;140.18;46.85;;;3.70;99.90;;;;;;5052480;28;20268;-89
2020/12/17 00:18:40;;;;;;;130.23;46.05;;;3.80;99.90;;;;;;5051988;28;20201;-89
2020/12/17 00:21:06;;;;;;;144.07;47.37;;;3.70;99.90;;;;;;5051272;28;20587;-90
2020/12/17 00:23:31;;;;;;;140.53;49.67;;;3.80;99.90;;;;;;5053390;28;20196;-90
2020/12/17 00:26:00;;;;;;;138.87;46.10;;;3.80;99.90;;;;;;5052248;28;20915;-88
2020/12/17 00:28:34;;;;;;;140.20;47.33;;;3.80;99.90;;;;;;5052653;28;20189;-90
2020/12/17 00:31:06;;;;;;;134.50;45.25;;;3.90;99.90;;;;;;5052634;28;20535;-89
2020/12/17 00:33:34;;;;;;;159.27;48.72;;;3.80;99.90;;;;;;5052107;28;20554;-90
2020/12/17 00:36:02;;;;;;;150.50;46.88;;;3.70;99.90;;;;;;5051828;28;20178;-90
2020/12/17 00:38:28;;;;;;;137.82;46.40;;;3.70;99.90;;;;;;5051833;28;20283;-90
2020/12/17 00:40:56;;;;;;;133.77;45.47;;;3.70;99.90;;;;;;5053199;28;20173;-89
2020/12/17 00:43:28;;;;;;;137.00;48.55;;;3.70;99.90;;;;;;5050669;28;20178;-90
2020/12/17 00:46:03;;;;;;;133.18;45.05;;;3.80;99.90;;;;;;5053040;28;20198;-89
2020/12/17 00:48:31;;;;;;;160.10;48.42;;;3.70;99.90;;;;;;5050883;28;20174;-90
2020/12/17 00:50:59;;;;;;;139.32;45.30;;;3.70;99.90;;;;;;5052217;28;20185;-90
2020/12/17 00:53:25;;;;;;;143.23;46.17;;;3.70;99.90;;;;;;5051870;28;20280;-90
2020/12/17 00:55:51;;;;;;;153.50;50.87;;;3.70;99.90;;;;;;5051893;28;20643;-90
2020/12/17 00:58:26;;;;;;;150.90;51.20;;;3.60;99.90;;;;;;5050772;28;20474;-89
2020/12/17 01:00:52;;;;;;;158.85;48.25;;;3.50;99.90;;;;;;5051685;28;20177;-90
2020/12/17 01:03:20;;;;;;;138.87;48.50;;;3.60;99.90;;;;;;5051915;28;20519;-90
2020/12/17 01:05:55;;;;;;;154.75;52.92;;;3.70;99.90;;;;;;5051813;28;20414;-90
2020/12/17 01:08:27;;;;;;;160.32;51.67;;;3.60;99.90;;;;;;5050759;28;20197;-90
2020/12/17 01:10:52;;;;;;;156.00;48.83;;;3.70;99.90;;;;;;5051207;28;20177;-90
2020/12/17 01:13:19;;;;;;;179.00;51.97;;;3.60;99.90;;;;;;5051993;28;20200;-90
2020/12/17 01:15:48;;;;;;;176.70;51.40;;;3.60;99.90;;;;;;5051034;28;20186;-90
2020/12/17 01:18:16;;;;;;;158.27;48.13;;;3.50;99.90;;;;;;5051380;28;20213;-89
2020/12/17 01:20:42;;;;;;;154.30;51.10;;;3.60;99.90;;;;;;5052738;28;20196;-90
2020/12/17 01:23:10;;;;;;;170.77;51.63;;;3.60;99.90;;;;;;5051500;28;20652;-89
2020/12/17 01:25:48;;;;;;;183.20;54.03;;;3.60;99.90;;;;;;5052413;28;20172;-90
2020/12/17 01:28:13;;;;;;;158.82;51.92;;;3.70;99.90;;;;;;5051736;28;20193;-90
2020/12/17 01:30:42;;;;;;;156.70;51.97;;;3.70;99.90;;;;;;5050546;28;20645;-89
2020/12/17 01:33:26;;;;;;;159.43;52.05;;;3.80;99.90;;;;;;5051136;28;20201;-90
2020/12/17 01:35:51;;;;;;;145.82;51.47;;;3.70;99.90;;;;;;5050666;28;20178;-90
2020/12/17 01:38:20;;;;;;;153.37;49.27;;;3.70;99.90;;;;;;5050723;28;20259;-90
2020/12/17 01:40:46;;;;;;;144.63;50.88;;;3.80;99.90;;;;;;5050979;28;20174;-89
2020/12/17 01:43:12;;;;;;;145.18;52.53;;;3.80;99.90;;;;;;5050998;28;20303;-90
2020/12/17 01:45:37;;;;;;;159.53;52.10;;;3.70;99.90;;;;;;5061814;28;21027;-89
2020/12/17 01:48:07;;;;;;;149.27;49.93;;;3.60;99.90;;;;;;5070705;28;20189;-90
2020/12/17 01:50:33;;;;;;;151.85;51.72;;;3.60;99.90;;;;;;5072459;28;20227;-90
2020/12/17 01:52:59;;;;;;;158.45;49.95;;;3.60;99.90;;;;;;5070941;28;20239;-90
2020/12/17 01:55:27;;;;;;;184.30;54.23;;;3.60;99.90;;;;;;5071626;28;20177;-90
2020/12/17 01:57:57;;;;;;;180.98;56.92;;;3.60;99.90;;;;;;5070471;28;20258;-89
2020/12/17 02:00:32;;;;;;;164.30;51.25;;;3.60;99.90;;;;;;5070970;28;20263;-90
2020/12/17 02:02:58;;;;;;;172.15;53.53;;;3.60;99.90;;;;;;5071073;28;20235;-90
2020/12/17 02:05:30;;;;;;;171.20;56.27;;;3.60;99.90;;;;;;5071804;28;20189;-90
2020/12/17 02:08:00;;;;;;;189.77;55.00;;;3.60;99.90;;;;;;5071960;28;20189;-90
2020/12/17 02:10:31;;;;;;;203.57;55.53;;;3.60;99.90;;;;;;5071713;28;20180;-89
2020/12/17 02:13:00;;;;;;;193.80;52.95;;;3.50;99.90;;;;;;5070466;28;20185;-90
2020/12/17 02:15:25;;;;;;;171.80;51.88;;;3.50;99.90;;;;;;5070725;28;20193;-90
2020/12/17 02:17:54;;;;;;;165.43;53.17;;;3.50;99.90;;;;;;5070567;28;20212;-90
2020/12/17 02:20:19;;;;;;;180.82;51.10;;;3.50;99.90;;;;;;5069636;28;20269;-90
2020/12/17 02:22:48;;;;;;;190.30;53.47;;;3.60;99.90;;;;;;5070570;28;20272;-89
2020/12/17 02:25:14;;;;;;;181.55;56.03;;;3.60;99.90;;;;;;5069897;28;20184;-89
2020/12/17 02:27:42;;;;;;;208.20;53.13;;;3.60;99.90;;;;;;5070980;28;20196;-89
2020/12/17 02:30:09;;;;;;;192.13;55.78;;;3.50;99.90;;;;;;5070271;28;20550;-89
2020/12/17 02:32:35;;;;;;;190.40;56.10;;;3.60;99.90;;;;;;5069998;28;20990;-90
2020/12/17 02:35:04;;;;;;;181.30;53.45;;;3.60;99.90;;;;;;5069651;28;20268;-90
2020/12/17 02:37:34;;;;;;;203.02;56.38;;;3.60;99.90;;;;;;5070519;28;20994;-90
2020/12/17 02:40:00;;;;;;;207.45;56.92;;;3.50;99.90;;;;;;5070087;28;20185;-89
2020/12/17 02:42:31;;;;;;;196.23;55.60;;;3.50;99.90;;;;;;5070403;28;20188;-90
2020/12/17 02:45:00;;;;;;;204.02;58.40;;;3.50;99.90;;;;;;5071188;28;20184;-90
2020/12/17 02:47:25;;;;;;;181.82;53.70;;;3.60;99.90;;;;;;5074494;28;20188;-90
2020/12/17 02:50:00;;;;;;;205.07;54.33;;;3.60;99.90;;;;;;5073511;28;20181;-89
2020/12/17 02:52:31;;;;;;;191.32;58.20;;;3.60;99.90;;;;;;5053674;28;20669;-90
2020/12/17 02:54:57;;;;;;;165.95;51.65;;;3.60;99.90;;;;;;5052918;28;20184;-89
2020/12/17 02:57:31;;;;;;;176.03;60.50;;;3.50;99.90;;;;;;5053758;28;20201;-89
2020/12/17 03:00:06;;;;;;;165.10;48.40;;;3.50;99.90;;;;;;5053685;28;20273;-90
2020/12/17 03:02:32;;;;;;;135.65;44.53;;;3.60;99.90;;;;;;5053707;28;20192;-90
2020/12/17 03:04:58;;;;;;;137.97;46.40;;;3.50;99.90;;;;;;5052756;28;20185;-90
2020/12/17 03:07:29;;;;;;;155.13;48.63;;;3.50;99.90;;;;;;5055199;28;20426;-89
2020/12/17 03:09:58;;;;;;;131.57;44.25;;;3.50;99.90;;;;;;5052495;28;20236;-90
2020/12/17 03:12:24;;;;;;;139.68;43.35;;;3.50;99.90;;;;;;5053857;28;20276;-89
2020/12/17 03:14:55;;;;;;;130.63;44.93;;;3.60;99.90;;;;;;5053501;28;20784;-90
2020/12/17 03:17:24;;;;;;;124.35;42.85;;;3.50;99.90;;;;;;5055101;28;20284;-89
2020/12/17 03:19:49;;;;;;;122.28;40.70;;;3.50;99.90;;;;;;5054129;28;20317;-89
2020/12/17 03:22:15;;;;;;;126.60;44.70;;;3.50;99.90;;;;;;5052650;28;20223;-89
2020/12/17 03:24:43;;;;;;;129.47;41.07;;;3.60;99.90;;;;;;5053371;28;20545;-89
2020/12/17 03:27:12;;;;;;;128.10;43.20;;;3.60;99.90;;;;;;5053662;28;20630;-89
2020/12/17 03:29:40;;;;;;;126.40;44.00;;;3.50;99.90;;;;;;5054267;28;20188;-90
2020/12/17 03:32:08;;;;;;;110.57;39.95;;;3.40;99.90;;;;;;5053570;28;20237;-90
2020/12/17 03:34:37;;;;;;;126.20;41.58;;;3.40;99.90;;;;;;5053221;28;20983;-89
2020/12/17 03:37:02;;;;;;;135.90;42.45;;;3.40;99.90;;;;;;5052547;28;20237;-89
2020/12/17 03:39:28;;;;;;;121.17;40.00;;;3.40;99.90;;;;;;5054986;28;20169;-90
2020/12/17 03:41:54;;;;;;;121.57;38.67;;;3.50;99.90;;;;;;5054485;28;20202;-90
2020/12/17 03:44:19;;;;;;;109.43;38.63;;;3.50;99.90;;;;;;5054218;28;20641;-89
2020/12/17 03:46:47;;;;;;;129.20;42.87;;;3.40;99.90;;;;;;5073708;28;20185;-90
2020/12/17 03:49:16;;;;;;;128.02;40.53;;;3.40;99.90;;;;;;5072914;28;20169;-90
2020/12/17 03:51:41;;;;;;;136.35;43.53;;;3.50;99.90;;;;;;5074294;28;20538;-90
2020/12/17 03:54:07;;;;;;;130.27;42.10;;;3.40;99.90;;;;;;5072512;28;20177;-89
2020/12/17 03:56:33;;;;;;;132.97;40.33;;;3.40;99.90;;;;;;5074073;28;20520;-89
2020/12/17 03:59:04;;;;;;;119.87;40.10;;;3.50;99.90;;;;;;5072043;28;20208;-90
2020/12/17 04:01:30;;;;;;;145.00;43.53;;;3.50;99.90;;;;;;5073107;28;20231;-89
2020/12/17 04:03:55;;;;;;;136.67;44.60;;;3.40;99.90;;;;;;5072518;28;20173;-89
2020/12/17 04:06:27;;;;;;;139.07;43.97;;;3.40;99.90;;;;;;5072045;28;20650;-90
2020/12/17 04:09:02;;;;;;;119.45;38.05;;;3.40;99.90;;;;;;5072138;28;20178;-90
2020/12/17 04:11:27;;;;;;;127.80;43.85;;;3.30;99.90;;;;;;5072139;28;20249;-89
2020/12/17 04:13:56;;;;;;;137.57;42.67;;;3.20;99.90;;;;;;5072516;28;20181;-90
2020/12/17 04:16:24;;;;;;;130.70;41.03;;;3.20;99.90;;;;;;5072378;28;20180;-89
2020/12/17 04:18:50;;;;;;;144.80;42.65;;;3.30;99.90;;;;;;5072058;28;20545;-89
2020/12/17 04:21:15;;;;;;;129.77;39.67;;;3.40;99.90;;;;;;5071501;28;20177;-89
2020/12/17 04:23:41;;;;;;;145.93;44.33;;;3.40;99.90;;;;;;5074243;28;20165;-90
2020/12/17 04:26:14;;;;;;;143.77;41.17;;;3.30;99.90;;;;;;5071715;28;20184;-89
2020/12/17 04:28:48;;;;;;;133.60;40.03;;;3.40;99.90;;;;;;5071791;28;20184;-89
2020/12/17 04:31:14;;;;;;;123.40;39.92;;;3.30;99.90;;;;;;5072135;28;20229;-90
2020/12/17 04:33:45;;;;;;;135.33;42.97;;;3.30;99.90;;;;;;5073129;28;20672;-89
2020/12/17 04:36:11;;;;;;;124.20;39.65;;;3.20;99.90;;;;;;5071610;28;20279;-89
2020/12/17 04:38:36;;;;;;;145.33;41.07;;;3.10;99.90;;;;;;5071558;28;20263;-89
2020/12/17 04:41:04;;;;;;;133.53;41.90;;;3.10;99.90;;;;;;5071234;28;20173;-89
2020/12/17 04:43:35;;;;;;;119.22;37.17;;;3.10;99.90;;;;;;5072235;28;20825;-89
2020/12/17 04:46:06;;;;;;;106.40;35.38;;;3.00;99.90;;;;;;5057829;28;20608;-89
2020/12/17 04:48:33;;;;;;;125.68;38.75;;;3.10;99.90;;;;;;5051585;28;20189;-89
2020/12/17 04:50:58;;;;;;;111.25;38.65;;;3.20;99.90;;;;;;5051645;28;20335;-90
2020/12/17 04:53:24;;;;;;;122.63;37.77;;;3.10;99.90;;;;;;5051786;28;20292;-89
2020/12/17 04:55:51;;;;;;;117.13;38.63;;;3.10;99.90;;;;;;5051311;28;20550;-89
2020/12/17 04:58:20;;;;;;;114.85;37.72;;;3.10;99.90;;;;;;5050479;28;20995;-90
2020/12/17 05:00:52;;;;;;;115.07;38.53;;;3.10;99.90;;;;;;5051517;28;20299;-90
2020/12/17 05:03:23;;;;;;;118.60;38.67;;;3.20;99.90;;;;;;5051426;28;20236;-90
2020/12/17 05:05:52;;;;;;;127.93;37.42;;;3.10;99.90;;;;;;5051758;28;20162;-89
2020/12/17 05:08:26;;;;;;;105.30;36.15;;;3.00;99.90;;;;;;5050498;28;20666;-90
2020/12/17 05:10:52;;;;;;;120.25;40.20;;;3.00;99.90;;;;;;5050966;28;20173;-89
2020/12/17 05:13:18;;;;;;;114.07;36.17;;;3.10;99.90;;;;;;5051269;28;20204;-88
2020/12/17 05:15:47;;;;;;;126.63;41.17;;;3.20;99.90;;;;;;5051191;28;20935;-89
2020/12/17 05:18:13;;;;;;;138.07;42.75;;;3.10;99.90;;;;;;5050747;28;20476;-89
2020/12/17 05:20:39;;;;;;;121.17;40.47;;;3.10;99.90;;;;;;5052193;28;20603;-89
2020/12/17 05:23:10;;;;;;;113.40;36.33;;;3.10;99.90;;;;;;5051292;28;20911;-89
2020/12/17 05:25:42;;;;;;;122.18;41.03;;;2.90;99.90;;;;;;5051680;28;20522;-89
2020/12/17 05:28:12;;;;;;;141.95;42.78;;;3.10;99.90;;;;;;5051549;28;20186;-90
2020/12/17 05:30:43;;;;;;;131.10;40.15;;;3.10;99.90;;;;;;5051884;28;20253;-89
2020/12/17 05:33:12;;;;;;;127.35;39.30;;;3.10;99.90;;;;;;5050553;28;20284;-88
2020/12/17 05:35:39;;;;;;;186.98;69.90;;;2.90;99.90;;;;;;5051933;28;20239;-89
2020/12/17 05:38:11;;;;;;;230.65;92.60;;;2.80;99.90;;;;;;5050790;28;20233;-89
2020/12/17 05:40:38;;;;;;;461.10;280.75;;;2.80;99.90;;;;;;5051754;28;20166;-89
2020/12/17 05:43:04;;;;;;;156.45;67.03;;;2.90;99.90;;;;;;5050497;28;20189;-89
2020/12/17 05:45:31;;;;;;;124.55;47.50;;;2.90;99.90;;;;;;5059912;28;20188;-88
2020/12/17 05:48:19;;;;;;;122.75;38.10;;;3.00;99.90;;;;;;5070605;28;20718;-89
2020/12/17 05:51:02;;;;;;;139.63;40.38;;;3.00;99.90;;;;;;5071901;28;20165;-88
2020/12/17 05:53:38;;;;;;;117.78;40.65;;;2.80;99.90;;;;;;5071526;28;20574;-89
2020/12/17 05:56:06;;;;;;;140.60;44.15;;;2.80;99.90;;;;;;5070763;28;20279;-89
2020/12/17 05:58:47;;;;;;;129.90;44.42;;;2.70;99.90;;;;;;5070992;28;20291;-90
2020/12/17 06:01:17;;;;;;;142.70;46.33;;;2.80;99.90;;;;;;5071119;28;20234;-89
2020/12/17 06:03:49;;;;;;;113.63;38.90;;;2.90;99.90;;;;;;5070256;28;20166;-90
2020/12/17 06:06:16;;;;;;;123.55;52.38;;;2.80;99.90;;;;;;5070545;28;20209;-90
2020/12/17 06:08:42;;;;;;;265.63;154.70;;;2.70;99.90;;;;;;5070186;28;20181;-90
2020/12/17 06:11:15;;;;;;;103.03;40.83;;;2.70;99.90;;;;;;5070342;28;20653;-89
2020/12/17 06:13:45;;;;;;;108.65;39.72;;;2.70;99.90;;;;;;5071811;28;20203;-89
2020/12/17 06:16:14;;;;;;;114.70;38.42;;;2.70;99.90;;;;;;5071757;28;20541;-89
2020/12/17 06:19:01;;;;;;;92.50;32.63;;;2.60;99.90;;;;;;5070247;28;20246;-89
2020/12/17 06:21:27;;;;;;;99.15;35.17;;;2.70;99.90;;;;;;5073911;28;20219;-90
2020/12/17 06:23:57;;;;;;;111.75;40.97;;;2.70;99.90;;;;;;5074230;28;20181;-89
2020/12/17 06:26:26;;;;;;;99.95;35.60;;;2.80;99.90;;;;;;5074836;28;20657;-89
2020/12/17 06:28:54;;;;;;;103.45;36.45;;;2.80;99.90;;;;;;5074485;28;20676;-90
2020/12/17 06:31:26;;;;;;;105.30;32.65;;;2.90;99.90;;;;;;5073852;28;20185;-89
2020/12/17 06:33:56;;;;;;;116.38;33.58;;;2.80;99.90;;;;;;5074390;28;20208;-89
2020/12/17 06:36:36;;;;;;;116.63;37.30;;;2.80;99.90;;;;;;5074016;28;20182;-89
2020/12/17 06:39:05;;;;;;;110.28;37.75;;;2.80;99.90;;;;;;5074535;28;20924;-89
2020/12/17 06:41:31;;;;;;;130.20;41.33;;;2.90;99.90;;;;;;5075422;28;20170;-89
2020/12/17 06:44:00;;;;;;;111.90;39.57;;;2.80;99.90;;;;;;5074753;28;20184;-89
2020/12/17 06:46:36;;;;;;;138.93;43.35;;;2.90;99.90;;;;;;5057042;28;20182;-89
2020/12/17 06:49:08;;;;;;;158.65;45.10;;;2.90;99.90;;;;;;5053968;28;20307;-89
2020/12/17 06:51:39;;;;;;;125.35;40.60;;;3.00;99.90;;;;;;5054498;28;20189;-89
2020/12/17 06:54:28;;;;;;;123.97;41.97;;;3.00;99.90;;;;;;5053766;28;20199;-89
2020/12/17 06:57:14;;;;;;;132.18;40.72;;;3.00;99.90;;;;;;5053343;28;20182;-89
2020/12/17 06:59:47;;;;;;;135.93;39.35;;;3.00;99.90;;;;;;5054026;28;20178;-89
2020/12/17 07:02:20;;;;;;;132.80;38.65;;;3.00;99.90;;;;;;5052040;28;20190;-89
2020/12/17 07:04:49;;;;;;;142.38;42.40;;;3.00;99.90;;;;;;5053031;28;20178;-88
2020/12/17 07:07:22;;;;;;;139.30;39.95;;;3.00;99.90;;;;;;5047153;28;20214;-88
2020/12/17 07:10:14;;;;;;;127.18;39.90;;;3.10;99.90;;;;;;5033868;28;20178;-90
2020/12/17 07:12:44;;;;;;;140.45;43.20;;;3.00;99.90;;;;;;5038385;28;20197;-89
2020/12/17 07:15:31;;;;;;;120.63;42.28;;;3.10;99.90;;;;;;5049097;28;20178;-88
2020/12/17 07:18:17;;;;;;;136.00;41.95;;;3.20;99.90;;;;;;5041987;28;20736;-88
2020/12/17 07:20:44;;;;;;;131.15;42.38;;;3.20;99.90;;;;;;5033694;28;20182;-89
2020/12/17 07:23:10;;;;;;;135.63;42.67;;;3.20;99.90;;;;;;5035822;28;20190;-89
2020/12/17 07:25:45;;;;;;;144.27;42.67;;;3.00;99.90;;;;;;5041829;28;20182;-88
2020/12/17 07:28:14;;;;;;;135.35;43.20;;;2.90;99.90;;;;;;5032858;28;20186;-89
2020/12/17 07:30:39;;;;;;;143.32;42.95;;;2.90;99.90;;;;;;5035224;28;20229;-88
2020/12/17 07:33:05;;;;;;;152.37;50.20;;;2.90;99.90;;;;;;5040975;28;20213;-90
2020/12/17 07:35:30;;;;;;;153.30;45.30;;;3.00;99.90;;;;;;5037637;28;20270;-89
2020/12/17 07:38:02;;;;;;;140.23;44.77;;;2.90;99.90;;;;;;5047022;28;20229;-89
2020/12/17 07:40:28;;;;;;;142.60;44.05;;;2.90;99.90;;;;;;5048622;28;20221;-90
2020/12/17 07:43:01;;;;;;;192.90;62.13;;;3.00;99.90;;;;;;5033293;28;20190;-89
2020/12/17 07:45:40;;;;;;;182.35;62.22;;;3.00;99.90;;;;;;5048559;28;20637;-89
2020/12/17 07:48:43;;;;;;;176.73;61.28;;;3.00;99.90;;;;;;5073146;28;20194;-89
2020/12/17 07:51:28;;;;;;;178.57;59.42;;;3.00;99.90;;;;;;5060794;28;20200;-89
2020/12/17 07:54:05;;;;;;;144.57;44.08;;;2.90;99.90;;;;;;5050458;28;20702;-89
2020/12/17 07:56:31;;;;;;;157.75;50.78;;;3.00;99.90;;;;;;5034994;28;20634;-89
2020/12/17 07:59:02;;;;;;;167.80;51.47;;;2.90;99.90;;;;;;5048083;28;20213;-88
2020/12/17 08:01:39;;;;;;;138.95;42.22;;;2.90;99.90;;;;;;5050540;28;20263;-89
2020/12/17 08:04:06;;;;;;;150.18;43.67;;;2.80;99.90;;;;;;5047639;28;20174;-88
2020/12/17 08:06:35;;;;;;;139.60;42.35;;;2.80;99.90;;;;;;5042479;28;20201;-89
2020/12/17 08:09:04;;;;;;;138.32;41.05;;;2.90;99.90;;;;;;5042241;28;20239;-90
2020/12/17 08:11:36;;;;;;;131.77;40.97;;;2.80;99.90;;;;;;5046661;28;20279;-89
2020/12/17 08:14:04;;;;;;;139.82;38.53;;;2.70;99.90;;;;;;5051922;28;20181;-90
2020/12/17 08:16:36;;;;;;;147.40;39.53;;;2.70;99.90;;;;;;5040837;28;20187;-90
2020/12/17 08:19:03;;;;;;;142.40;43.85;;;2.70;99.90;;;;;;5033349;28;20292;-90
2020/12/17 08:21:29;;;;;;;152.60;52.13;;;2.80;99.90;;;;;;5044531;28;20186;-89
2020/12/17 08:23:55;;;;;;;123.40;41.08;;;2.90;99.90;;;;;;5040263;28;20197;-89
2020/12/17 08:26:32;;;;;;;115.50;37.30;;;2.90;99.90;;;;;;5029083;28;20186;-90
2020/12/17 08:28:58;;;;;;;131.82;39.05;;;2.90;99.90;;;;;;5046852;28;20426;-91
2020/12/17 08:31:24;;;;;;;105.53;35.33;;;2.80;99.90;;;;;;5041699;28;20197;-89
2020/12/17 08:33:56;;;;;;;102.40;34.63;;;2.80;99.90;;;;;;5033552;28;20233;-89
2020/12/17 08:36:26;;;;;;;110.40;35.97;;;2.70;99.90;;;;;;5039334;28;20189;-91
2020/12/17 08:39:14;;;;;;;117.80;37.10;;;2.80;99.90;;;;;;5037892;28;20298;-91
2020/12/17 08:41:53;;;;;;;123.80;42.47;;;2.90;99.90;;;;;;5053569;28;20183;-90
2020/12/17 08:44:25;;;;;;;115.10;37.20;;;2.90;99.90;;;;;;5038757;28;20364;-90
2020/12/17 08:50:53;;;;;;;91.93;34.42;;;4.30;99.90;;;;;;5127246;27;20592;-81
2020/12/17 08:53:23;;;;;;;101.82;35.05;;;4.40;99.90;;;;;;5128933;27;20175;-84
2020/12/17 08:56:10;;;;;;;99.80;34.83;;;4.80;99.90;;;;;;5124795;27;20206;-84
2020/12/17 08:58:53;;;;;;;116.57;41.03;;;5.00;99.90;;;;;;5128773;27;20244;-84
2020/12/17 09:01:34;;;;;;;113.07;38.50;;;5.10;99.80;;;;;;5118814;28;20182;-84
2020/12/17 09:04:04;;;;;;;107.93;39.13;;;5.10;99.10;;;;;;5118296;28;20269;-84
2020/12/17 09:06:34;;;;;;;117.78;41.45;;;5.10;98.60;;;;;;5129120;27;20174;-84
2020/12/17 09:09:33;;;;;;;105.03;38.80;;;5.20;98.30;;;;;;5128931;27;20211;-84
2020/12/17 09:11:59;;;;;;;131.48;43.45;;;5.20;97.90;;;;;;5108804;28;20195;-84
2020/12/17 09:14:36;;;;;;;115.65;42.70;;;5.20;97.80;;;;;;5108288;28;20186;-84
2020/12/17 09:17:18;;;;;;;117.07;43.50;;;5.20;97.60;;;;;;5118713;28;20175;-84
2020/12/17 09:19:46;;;;;;;153.10;70.60;;;5.30;97.40;;;;;;5129153;27;20187;-84
2020/12/17 09:22:23;;;;;;;152.32;46.60;;;5.30;97.50;;;;;;5128772;27;20199;-83
2020/12/17 09:24:54;;;;;;;141.23;43.72;;;5.30;97.00;;;;;;5128304;27;20194;-84
2020/12/17 09:27:24;;;;;;;161.40;48.08;;;5.30;96.90;;;;;;5113168;27;20179;-84
2020/12/17 09:30:05;;;;;;;153.52;49.05;;;5.30;96.80;;;;;;5128369;27;20268;-84
2020/12/17 09:32:31;;;;;;;145.43;46.22;;;5.30;96.70;;;;;;5121692;27;20175;-84
2020/12/17 09:35:02;;;;;;;155.98;51.17;;;5.30;96.70;;;;;;5129088;27;20632;-83
2020/12/17 09:37:28;;;;;;;144.00;47.53;;;5.40;96.90;;;;;;5108434;28;20259;-85
2020/12/17 09:39:57;;;;;;;160.87;48.20;;;5.40;96.90;;;;;;5111477;28;20309;-84
2020/12/17 09:42:23;;;;;;;149.23;47.38;;;5.40;96.40;;;;;;5126992;28;20331;-85
2020/12/17 09:44:55;;;;;;;155.82;51.63;;;5.40;96.30;;;;;;5121207;28;20187;-85
2020/12/17 09:47:36;;;;;;;148.65;47.70;;;5.40;96.40;;;;;;5118108;28;20202;-85
2020/12/17 09:50:18;;;;;;;152.88;47.38;;;5.40;96.30;;;;;;5121938;28;20234;-86
2020/12/17 09:52:44;;;;;;;149.60;51.50;;;5.40;96.30;;;;;;5127269;28;20178;-85
2020/12/17 09:55:14;;;;;;;152.82;48.88;;;5.40;96.30;;;;;;5116633;28;20183;-84
2020/12/17 09:57:51;;;;;;;133.27;48.17;;;5.40;96.30;;;;;;5111647;28;20210;-85
2020/12/17 10:00:17;;;;;;;160.77;54.15;;;5.50;96.20;;;;;;5113579;27;20192;-85
2020/12/17 10:02:43;;;;;;;137.55;46.05;;;5.50;96.10;;;;;;5096523;28;20192;-85
2020/12/17 10:05:11;;;;;;;170.30;55.80;;;5.50;96.00;;;;;;5102528;28;20196;-84
2020/12/17 10:07:46;;;;;;;155.93;55.30;;;5.50;96.20;;;;;;5094721;28;20194;-84
2020/12/17 10:10:17;;;;;;;121.97;45.20;;;5.60;95.70;;;;;;5088167;28;20207;-84
2020/12/17 10:12:43;;;;;;;147.23;51.17;;;5.60;95.50;;;;;;5105321;28;20207;-85
2020/12/17 10:15:08;;;;;;;132.17;45.43;;;5.50;95.20;;;;;;5097633;28;20211;-85
2020/12/17 10:17:34;;;;;;;147.40;47.10;;;5.50;95.20;;;;;;5087312;28;20206;-85
2020/12/17 10:20:00;;;;;;;148.63;46.17;;;5.50;95.40;;;;;;5087213;28;20575;-85
2020/12/17 10:22:28;;;;;;;139.10;45.50;;;5.60;95.40;;;;;;5085193;28;20478;-85
2020/12/17 10:24:57;;;;;;;131.13;45.70;;;5.60;95.40;;;;;;5086935;28;20227;-85
2020/12/17 10:27:25;;;;;;;158.93;49.53;;;5.60;95.40;;;;;;5105922;28;20206;-85
2020/12/17 10:29:57;;;;;;;206.05;87.57;;;5.60;95.50;;;;;;5101518;28;20212;-85
2020/12/17 10:32:22;;;;;;;130.98;46.80;;;5.60;95.40;;;;;;5107039;28;20258;-85
2020/12/17 10:34:48;;;;;;;153.87;52.50;;;5.60;95.10;;;;;;5101247;28;20719;-84
2020/12/17 10:37:14;;;;;;;170.27;60.73;;;5.60;95.10;;;;;;5106265;28;20184;-85
2020/12/17 10:39:41;;;;;;;148.50;56.83;;;5.60;95.20;;;;;;5102420;28;20549;-84
2020/12/17 10:42:12;;;;;;;156.93;46.65;;;5.60;95.00;;;;;;5088326;28;20176;-84
2020/12/17 10:44:38;;;;;;;142.07;44.72;;;5.60;94.90;;;;;;5086985;28;20279;-84
2020/12/17 10:47:04;;;;;;;140.70;44.37;;;5.50;95.00;;;;;;5088482;28;20373;-85
2020/12/17 10:49:30;;;;;;;141.05;46.97;;;5.50;95.10;;;;;;5086430;28;20232;-85
2020/12/17 10:51:58;;;;;;;163.37;61.73;;;5.50;95.20;;;;;;5103037;28;20183;-85
2020/12/17 10:54:28;;;;;;;123.18;44.67;;;5.50;95.40;;;;;;5104691;28;21027;-85
2020/12/17 10:56:59;;;;;;;123.43;44.38;;;5.50;95.30;;;;;;5102573;28;20180;-86
2020/12/17 10:59:25;;;;;;;119.10;41.15;;;5.60;95.30;;;;;;5102581;28;20181;-86
2020/12/17 11:02:01;;;;;;;123.43;42.00;;;5.60;95.20;;;;;;5088121;28;20292;-85
2020/12/17 11:04:27;;;;;;;115.57;39.85;;;5.60;95.10;;;;;;5105283;28;20183;-85
2020/12/17 11:06:57;;;;;;;117.83;43.63;;;5.70;95.00;;;;;;5108273;28;20541;-86
2020/12/17 11:09:25;;;;;;;147.38;45.60;;;5.70;94.80;;;;;;5104230;28;20208;-85
2020/12/17 11:12:00;;;;;;;134.70;43.22;;;5.70;94.70;;;;;;5099875;28;20639;-85
2020/12/17 11:14:26;;;;;;;133.45;44.70;;;5.70;94.70;;;;;;5102322;28;20188;-85
2020/12/17 11:16:55;;;;;;;142.03;47.80;;;5.70;94.70;;;;;;5098404;28;20670;-84
2020/12/17 11:19:20;;;;;;;114.70;42.83;;;5.70;94.60;;;;;;5102265;28;20195;-85
2020/12/17 11:21:46;;;;;;;123.83;42.60;;;5.70;94.50;;;;;;5108349;28;20655;-85
2020/12/17 11:24:12;;;;;;;127.22;42.40;;;5.80;94.50;;;;;;5103276;28;20541;-86
2020/12/17 11:26:48;;;;;;;132.43;45.40;;;5.80;94.50;;;;;;5091225;28;20183;-85
2020/12/17 11:29:16;;;;;;;135.18;47.58;;;5.80;94.50;;;;;;5098014;28;20211;-84
2020/12/17 11:31:51;;;;;;;150.95;48.50;;;5.80;94.50;;;;;;5098663;28;20180;-84
2020/12/17 11:34:16;;;;;;;132.48;48.80;;;5.80;94.40;;;;;;5101902;28;20666;-84
2020/12/17 11:36:51;;;;;;;151.00;47.50;;;5.80;94.20;;;;;;5097641;28;20255;-85
2020/12/17 11:39:17;;;;;;;130.98;46.58;;;5.70;94.00;;;;;;5089036;28;20692;-85
2020/12/17 11:41:50;;;;;;;142.73;45.37;;;5.70;94.10;;;;;;5099626;28;20382;-85
2020/12/17 11:44:16;;;;;;;132.20;49.33;;;5.70;94.30;;;;;;5090364;28;20192;-86
2020/12/17 11:46:43;;;;;;;117.82;44.13;;;5.60;94.30;;;;;;5098717;28;20186;-86
2020/12/17 11:49:08;;;;;;;117.22;45.30;;;5.60;94.40;;;;;;5100215;28;20230;-86
2020/12/17 11:51:34;;;;;;;110.47;42.03;;;5.60;94.50;;;;;;5101128;28;20291;-84
2020/12/17 11:54:02;;;;;;;151.10;57.17;;;5.60;94.50;;;;;;5094089;28;20682;-83
2020/12/17 11:56:28;;;;;;;152.38;54.58;;;5.60;94.50;;;;;;5103070;28;20675;-84
2020/12/17 11:58:56;;;;;;;134.83;44.87;;;5.60;94.40;;;;;;5103961;28;20199;-84
2020/12/17 12:01:31;;;;;;;117.20;42.72;;;5.60;94.20;;;;;;5103318;28;20422;-86
2020/12/17 12:03:57;;;;;;;120.05;41.90;;;5.60;94.10;;;;;;5106826;27;20202;-88
2020/12/17 12:06:22;;;;;;;122.80;44.50;;;5.60;94.30;;;;;;5092472;28;20184;-86
2020/12/17 12:08:48;;;;;;;115.97;44.00;;;5.60;94.30;;;;;;5089692;28;20208;-86
2020/12/17 12:11:59;;;;;;;122.10;51.03;;;5.60;94.40;;;;;;5102979;28;20175;-86
2020/12/17 12:14:25;;;;;;;119.18;42.15;;;5.60;94.40;;;;;;5094258;28;20664;-86
2020/12/17 12:16:54;;;;;;;105.33;43.00;;;5.60;94.20;;;;;;5096361;28;20211;-85
2020/12/17 12:19:22;;;;;;;132.40;46.38;;;5.60;94.20;;;;;;5090925;28;21145;-85
2020/12/17 12:21:55;;;;;;;113.07;41.53;;;5.60;94.00;;;;;;5100216;28;20233;-86
2020/12/17 12:24:20;;;;;;;119.88;42.40;;;5.60;93.90;;;;;;5091819;28;20235;-86
2020/12/17 12:26:46;;;;;;;154.77;64.80;;;5.60;93.90;;;;;;5104814;28;20623;-87
2020/12/17 12:29:12;;;;;;;124.38;43.88;;;5.60;93.90;;;;;;5090291;28;20204;-87
2020/12/17 12:31:38;;;;;;;114.03;45.00;;;5.60;93.90;;;;;;5086125;28;20177;-86
2020/12/17 12:34:03;;;;;;;140.33;56.70;;;5.60;94.00;;;;;;5098297;28;20256;-84
2020/12/17 12:36:32;;;;;;;112.23;42.37;;;5.60;94.10;;;;;;5097393;28;20274;-84
2020/12/17 12:39:00;;;;;;;109.07;43.58;;;5.60;94.00;;;;;;5101699;28;20793;-84
2020/12/17 12:41:26;;;;;;;104.70;42.40;;;5.60;94.00;;;;;;5094758;28;20187;-85
2020/12/17 12:43:52;;;;;;;100.73;41.57;;;5.70;94.00;;;;;;5093157;28;20197;-85
2020/12/17 12:46:23;;;;;;;117.03;42.53;;;5.70;93.80;;;;;;5095747;28;20191;-85